sensor_id;sensor_type;location;lat;lon;timestamp;P1;durP1;ratioP1;P2;durP2;ratioP2
26269;SDS011;15937;50.612;6.656;2022-07-21T00:00:05;9.10;;;4.70;;
26269;SDS011;15937;50.612;6.656;2022-07-21T00:04:09;6.80;;;4.85;;
26269;SDS011;15937;50.612;6.656;2022-07-21T00:08:11;7.75;;;4.70;;
26269;SDS011;15937;50.612;6.656;2022-07-21T00:12:14;7.95;;;5.47;;
26269;SDS011;15937;50.612;6.656;2022-07-21T00:16:16;10.13;;;5.27;;
26269;SDS011;15937;50.612;6.656;2022-07-21T00:20:24;6.45;;;4.57;;
26269;SDS011;15937;50.612;6.656;2022-07-21T00:24:27;11.80;;;4.97;;
26269;SDS011;15937;50.612;6.656;2022-07-21T00:28:29;11.57;;;5.30;;
26269;SDS011;15937;50.612;6.656;2022-07-21T00:32:31;8.70;;;4.78;;
26269;SDS011;15937;50.612;6.656;2022-07-21T00:36:36;9.77;;;4.95;;
26269;SDS011;15937;50.612;6.656;2022-07-21T00:40:38;7.27;;;4.70;;
26269;SDS011;15937;50.612;6.656;2022-07-21T00:44:40;10.83;;;4.80;;
26269;SDS011;15937;50.612;6.656;2022-07-21T00:48:41;7.22;;;5.35;;
26269;SDS011;15937;50.612;6.656;2022-07-21T00:52:43;8.35;;;5.25;;
26269;SDS011;15937;50.612;6.656;2022-07-21T01:00:48;7.90;;;4.97;;
26269;SDS011;15937;50.612;6.656;2022-07-21T01:04:50;10.10;;;5.65;;
26269;SDS011;15937;50.612;6.656;2022-07-21T01:08:52;14.07;;;4.65;;
26269;SDS011;15937;50.612;6.656;2022-07-21T01:12:57;8.93;;;5.30;;
26269;SDS011;15937;50.612;6.656;2022-07-21T01:17:02;9.82;;;5.15;;
26269;SDS011;15937;50.612;6.656;2022-07-21T01:25:46;10.85;;;4.93;;
26269;SDS011;15937;50.612;6.656;2022-07-21T01:29:49;7.97;;;4.80;;
26269;SDS011;15937;50.612;6.656;2022-07-21T01:33:51;7.47;;;4.77;;
26269;SDS011;15937;50.612;6.656;2022-07-21T01:37:52;8.93;;;5.45;;
26269;SDS011;15937;50.612;6.656;2022-07-21T01:41:56;11.55;;;5.10;;
26269;SDS011;15937;50.612;6.656;2022-07-21T01:45:58;11.40;;;4.88;;
26269;SDS011;15937;50.612;6.656;2022-07-21T01:49:59;10.00;;;5.67;;
26269;SDS011;15937;50.612;6.656;2022-07-21T01:54:02;9.53;;;5.27;;
26269;SDS011;15937;50.612;6.656;2022-07-21T01:58:04;8.05;;;5.70;;
26269;SDS011;15937;50.612;6.656;2022-07-21T02:02:06;8.80;;;5.67;;
26269;SDS011;15937;50.612;6.656;2022-07-21T02:06:08;13.67;;;5.97;;
26269;SDS011;15937;50.612;6.656;2022-07-21T02:10:10;8.52;;;5.13;;
26269;SDS011;15937;50.612;6.656;2022-07-21T02:14:12;12.93;;;5.22;;
26269;SDS011;15937;50.612;6.656;2022-07-21T02:18:14;9.23;;;5.60;;
26269;SDS011;15937;50.612;6.656;2022-07-21T02:22:16;9.60;;;6.18;;
26269;SDS011;15937;50.612;6.656;2022-07-21T02:26:18;13.27;;;6.03;;
26269;SDS011;15937;50.612;6.656;2022-07-21T02:30:20;8.70;;;6.47;;
26269;SDS011;15937;50.612;6.656;2022-07-21T02:34:21;10.37;;;6.53;;
26269;SDS011;15937;50.612;6.656;2022-07-21T02:38:23;7.55;;;5.25;;
26269;SDS011;15937;50.612;6.656;2022-07-21T02:42:25;9.87;;;6.70;;
26269;SDS011;15937;50.612;6.656;2022-07-21T02:46:27;11.73;;;6.23;;
26269;SDS011;15937;50.612;6.656;2022-07-21T02:50:30;13.77;;;8.23;;
26269;SDS011;15937;50.612;6.656;2022-07-21T02:54:33;10.60;;;6.35;;
26269;SDS011;15937;50.612;6.656;2022-07-21T02:58:35;12.13;;;6.22;;
26269;SDS011;15937;50.612;6.656;2022-07-21T03:02:37;9.80;;;6.55;;
26269;SDS011;15937;50.612;6.656;2022-07-21T03:06:39;8.57;;;5.85;;
26269;SDS011;15937;50.612;6.656;2022-07-21T03:10:40;12.93;;;5.83;;
26269;SDS011;15937;50.612;6.656;2022-07-21T03:14:43;14.98;;;6.68;;
26269;SDS011;15937;50.612;6.656;2022-07-21T03:18:44;10.60;;;5.80;;
26269;SDS011;15937;50.612;6.656;2022-07-21T03:22:46;13.40;;;5.80;;
26269;SDS011;15937;50.612;6.656;2022-07-21T03:26:48;9.85;;;5.93;;
26269;SDS011;15937;50.612;6.656;2022-07-21T03:31:04;8.20;;;5.35;;
26269;SDS011;15937;50.612;6.656;2022-07-21T03:35:07;9.80;;;5.95;;
26269;SDS011;15937;50.612;6.656;2022-07-21T03:39:11;7.68;;;6.10;;
26269;SDS011;15937;50.612;6.656;2022-07-21T03:43:13;8.75;;;5.80;;
26269;SDS011;15937;50.612;6.656;2022-07-21T03:47:15;14.02;;;6.25;;
26269;SDS011;15937;50.612;6.656;2022-07-21T03:51:16;18.30;;;8.02;;
26269;SDS011;15937;50.612;6.656;2022-07-21T03:55:18;11.45;;;6.93;;
26269;SDS011;15937;50.612;6.656;2022-07-21T03:59:20;9.23;;;6.17;;
26269;SDS011;15937;50.612;6.656;2022-07-21T04:03:22;8.77;;;6.25;;
26269;SDS011;15937;50.612;6.656;2022-07-21T04:07:27;14.20;;;6.78;;
26269;SDS011;15937;50.612;6.656;2022-07-21T04:11:29;19.58;;;8.35;;
26269;SDS011;15937;50.612;6.656;2022-07-21T04:15:32;8.68;;;6.35;;
26269;SDS011;15937;50.612;6.656;2022-07-21T04:23:36;11.65;;;6.32;;
26269;SDS011;15937;50.612;6.656;2022-07-21T04:27:39;9.75;;;7.18;;
26269;SDS011;15937;50.612;6.656;2022-07-21T04:31:41;20.35;;;7.38;;
26269;SDS011;15937;50.612;6.656;2022-07-21T04:35:46;14.05;;;9.15;;
26269;SDS011;15937;50.612;6.656;2022-07-21T04:39:48;19.30;;;8.77;;
26269;SDS011;15937;50.612;6.656;2022-07-21T04:43:53;11.20;;;7.57;;
26269;SDS011;15937;50.612;6.656;2022-07-21T04:47:55;16.70;;;9.25;;
26269;SDS011;15937;50.612;6.656;2022-07-21T04:51:57;14.50;;;9.20;;
26269;SDS011;15937;50.612;6.656;2022-07-21T04:56:05;12.80;;;7.88;;
26269;SDS011;15937;50.612;6.656;2022-07-21T05:00:09;17.13;;;8.63;;
26269;SDS011;15937;50.612;6.656;2022-07-21T05:04:12;11.30;;;6.82;;
26269;SDS011;15937;50.612;6.656;2022-07-21T05:08:14;11.73;;;5.73;;
26269;SDS011;15937;50.612;6.656;2022-07-21T05:12:16;9.75;;;5.95;;
26269;SDS011;15937;50.612;6.656;2022-07-21T05:16:17;10.65;;;7.13;;
26269;SDS011;15937;50.612;6.656;2022-07-21T05:20:20;9.93;;;6.65;;
26269;SDS011;15937;50.612;6.656;2022-07-21T05:24:21;12.88;;;6.60;;
26269;SDS011;15937;50.612;6.656;2022-07-21T05:28:24;5.30;;;3.15;;
26269;SDS011;15937;50.612;6.656;2022-07-21T05:32:25;3.70;;;3.05;;
26269;SDS011;15937;50.612;6.656;2022-07-21T05:36:27;8.70;;;2.72;;
26269;SDS011;15937;50.612;6.656;2022-07-21T05:40:29;7.50;;;3.40;;
26269;SDS011;15937;50.612;6.656;2022-07-21T05:44:31;7.43;;;4.35;;
26269;SDS011;15937;50.612;6.656;2022-07-21T05:48:33;8.60;;;4.55;;
26269;SDS011;15937;50.612;6.656;2022-07-21T05:52:34;13.75;;;5.72;;
26269;SDS011;15937;50.612;6.656;2022-07-21T05:56:36;15.77;;;5.40;;
26269;SDS011;15937;50.612;6.656;2022-07-21T06:00:38;8.00;;;5.45;;
26269;SDS011;15937;50.612;6.656;2022-07-21T06:04:41;12.00;;;4.85;;
26269;SDS011;15937;50.612;6.656;2022-07-21T06:08:43;6.60;;;4.83;;
26269;SDS011;15937;50.612;6.656;2022-07-21T06:12:47;6.82;;;5.18;;
26269;SDS011;15937;50.612;6.656;2022-07-21T06:16:49;11.80;;;5.50;;
26269;SDS011;15937;50.612;6.656;2022-07-21T06:20:51;11.52;;;6.15;;
26269;SDS011;15937;50.612;6.656;2022-07-21T06:24:53;13.50;;;7.75;;
26269;SDS011;15937;50.612;6.656;2022-07-21T06:28:55;11.40;;;6.60;;
26269;SDS011;15937;50.612;6.656;2022-07-21T06:32:57;18.10;;;7.07;;
26269;SDS011;15937;50.612;6.656;2022-07-21T06:36:59;14.70;;;7.13;;
26269;SDS011;15937;50.612;6.656;2022-07-21T06:41:01;10.23;;;7.03;;
26269;SDS011;15937;50.612;6.656;2022-07-21T06:45:04;10.30;;;7.32;;
26269;SDS011;15937;50.612;6.656;2022-07-21T06:49:07;9.15;;;5.45;;
26269;SDS011;15937;50.612;6.656;2022-07-21T06:53:09;10.70;;;7.25;;
26269;SDS011;15937;50.612;6.656;2022-07-21T06:57:11;7.50;;;5.40;;
26269;SDS011;15937;50.612;6.656;2022-07-21T07:01:14;11.93;;;7.22;;
26269;SDS011;15937;50.612;6.656;2022-07-21T07:05:18;10.80;;;6.53;;
26269;SDS011;15937;50.612;6.656;2022-07-21T07:09:20;8.68;;;5.90;;
26269;SDS011;15937;50.612;6.656;2022-07-21T07:13:23;7.50;;;5.20;;
26269;SDS011;15937;50.612;6.656;2022-07-21T07:17:45;6.57;;;4.93;;
26269;SDS011;15937;50.612;6.656;2022-07-21T07:21:48;8.50;;;4.78;;
26269;SDS011;15937;50.612;6.656;2022-07-21T07:25:50;9.02;;;5.57;;
26269;SDS011;15937;50.612;6.656;2022-07-21T07:29:51;7.40;;;5.23;;
26269;SDS011;15937;50.612;6.656;2022-07-21T07:33:53;13.37;;;4.97;;
26269;SDS011;15937;50.612;6.656;2022-07-21T07:37:58;6.95;;;4.32;;
26269;SDS011;15937;50.612;6.656;2022-07-21T07:42:00;8.97;;;4.83;;
26269;SDS011;15937;50.612;6.656;2022-07-21T07:46:02;7.72;;;5.07;;
26269;SDS011;15937;50.612;6.656;2022-07-21T07:50:06;7.82;;;4.75;;
26269;SDS011;15937;50.612;6.656;2022-07-21T07:54:10;10.60;;;5.47;;
26269;SDS011;15937;50.612;6.656;2022-07-21T07:58:12;6.80;;;4.40;;
26269;SDS011;15937;50.612;6.656;2022-07-21T08:02:14;7.53;;;4.47;;
26269;SDS011;15937;50.612;6.656;2022-07-21T08:06:16;13.90;;;4.95;;
26269;SDS011;15937;50.612;6.656;2022-07-21T08:10:18;12.23;;;5.30;;
26269;SDS011;15937;50.612;6.656;2022-07-21T08:14:41;11.77;;;5.97;;
26269;SDS011;15937;50.612;6.656;2022-07-21T08:18:43;8.70;;;4.67;;
26269;SDS011;15937;50.612;6.656;2022-07-21T08:22:52;11.60;;;5.18;;
26269;SDS011;15937;50.612;6.656;2022-07-21T08:26:54;12.77;;;5.50;;
26269;SDS011;15937;50.612;6.656;2022-07-21T08:30:56;7.03;;;5.63;;
26269;SDS011;15937;50.612;6.656;2022-07-21T08:34:59;9.35;;;5.63;;
26269;SDS011;15937;50.612;6.656;2022-07-21T08:39:04;11.23;;;6.28;;
26269;SDS011;15937;50.612;6.656;2022-07-21T08:43:07;9.90;;;6.32;;
26269;SDS011;15937;50.612;6.656;2022-07-21T08:47:10;13.65;;;7.00;;
26269;SDS011;15937;50.612;6.656;2022-07-21T08:51:12;15.23;;;6.50;;
26269;SDS011;15937;50.612;6.656;2022-07-21T08:55:16;8.55;;;6.10;;
26269;SDS011;15937;50.612;6.656;2022-07-21T08:59:18;11.82;;;5.60;;
26269;SDS011;15937;50.612;6.656;2022-07-21T09:03:28;14.80;;;5.97;;
26269;SDS011;15937;50.612;6.656;2022-07-21T09:07:47;7.60;;;4.97;;
26269;SDS011;15937;50.612;6.656;2022-07-21T09:11:56;12.63;;;4.85;;
26269;SDS011;15937;50.612;6.656;2022-07-21T09:16:01;12.65;;;4.43;;
26269;SDS011;15937;50.612;6.656;2022-07-21T09:20:23;6.25;;;3.72;;
26269;SDS011;15937;50.612;6.656;2022-07-21T09:24:27;13.90;;;5.10;;
26269;SDS011;15937;50.612;6.656;2022-07-21T09:28:50;7.68;;;4.65;;
26269;SDS011;15937;50.612;6.656;2022-07-21T09:33:22;6.60;;;3.80;;
26269;SDS011;15937;50.612;6.656;2022-07-21T09:37:49;9.43;;;4.05;;
26269;SDS011;15937;50.612;6.656;2022-07-21T09:42:10;8.70;;;4.00;;
26269;SDS011;15937;50.612;6.656;2022-07-21T09:46:32;8.00;;;4.00;;
26269;SDS011;15937;50.612;6.656;2022-07-21T09:55:54;8.38;;;4.13;;
26269;SDS011;15937;50.612;6.656;2022-07-21T10:00:00;10.95;;;4.10;;
26269;SDS011;15937;50.612;6.656;2022-07-21T10:04:12;7.60;;;3.85;;
26269;SDS011;15937;50.612;6.656;2022-07-21T10:12:17;9.50;;;4.10;;
26269;SDS011;15937;50.612;6.656;2022-07-21T10:16:20;6.88;;;3.40;;
26269;SDS011;15937;50.612;6.656;2022-07-21T10:20:27;11.43;;;4.10;;
26269;SDS011;15937;50.612;6.656;2022-07-21T10:24:34;8.32;;;3.58;;
26269;SDS011;15937;50.612;6.656;2022-07-21T10:28:39;5.95;;;3.80;;
26269;SDS011;15937;50.612;6.656;2022-07-21T10:36:51;5.82;;;4.30;;
26269;SDS011;15937;50.612;6.656;2022-07-21T10:40:56;12.50;;;5.40;;
26269;SDS011;15937;50.612;6.656;2022-07-21T10:45:03;9.30;;;5.10;;
26269;SDS011;15937;50.612;6.656;2022-07-21T10:49:45;12.48;;;5.75;;
26269;SDS011;15937;50.612;6.656;2022-07-21T10:54:24;10.82;;;4.85;;
26269;SDS011;15937;50.612;6.656;2022-07-21T10:58:42;12.85;;;5.55;;
26269;SDS011;15937;50.612;6.656;2022-07-21T11:02:50;15.35;;;5.57;;
26269;SDS011;15937;50.612;6.656;2022-07-21T11:06:57;9.40;;;5.13;;
26269;SDS011;15937;50.612;6.656;2022-07-21T11:16:13;11.18;;;4.40;;
26269;SDS011;15937;50.612;6.656;2022-07-21T11:20:16;11.20;;;5.30;;
26269;SDS011;15937;50.612;6.656;2022-07-21T11:29:04;13.73;;;5.22;;
26269;SDS011;15937;50.612;6.656;2022-07-21T11:38:12;10.68;;;5.50;;
26269;SDS011;15937;50.612;6.656;2022-07-21T11:42:18;13.98;;;5.50;;
26269;SDS011;15937;50.612;6.656;2022-07-21T11:46:44;10.60;;;5.47;;
26269;SDS011;15937;50.612;6.656;2022-07-21T11:50:59;8.98;;;5.65;;
26269;SDS011;15937;50.612;6.656;2022-07-21T11:55:03;13.27;;;6.00;;
26269;SDS011;15937;50.612;6.656;2022-07-21T11:59:10;12.05;;;5.43;;
26269;SDS011;15937;50.612;6.656;2022-07-21T12:03:13;10.57;;;6.05;;
26269;SDS011;15937;50.612;6.656;2022-07-21T12:07:17;9.35;;;6.30;;
26269;SDS011;15937;50.612;6.656;2022-07-21T12:11:32;9.98;;;6.07;;
26269;SDS011;15937;50.612;6.656;2022-07-21T12:15:39;11.68;;;6.63;;
26269;SDS011;15937;50.612;6.656;2022-07-21T12:19:43;32.33;;;14.25;;
26269;SDS011;15937;50.612;6.656;2022-07-21T12:27:47;11.25;;;6.78;;
26269;SDS011;15937;50.612;6.656;2022-07-21T12:31:55;12.95;;;5.70;;
26269;SDS011;15937;50.612;6.656;2022-07-21T12:40:00;11.50;;;6.50;;
26269;SDS011;15937;50.612;6.656;2022-07-21T12:44:03;11.35;;;5.95;;
26269;SDS011;15937;50.612;6.656;2022-07-21T12:48:09;7.50;;;5.32;;
26269;SDS011;15937;50.612;6.656;2022-07-21T12:52:12;13.95;;;7.22;;
26269;SDS011;15937;50.612;6.656;2022-07-21T12:56:19;12.07;;;5.80;;
26269;SDS011;15937;50.612;6.656;2022-07-21T13:00:23;18.50;;;6.03;;
26269;SDS011;15937;50.612;6.656;2022-07-21T13:04:25;14.93;;;6.07;;
26269;SDS011;15937;50.612;6.656;2022-07-21T13:12:29;14.80;;;5.90;;
26269;SDS011;15937;50.612;6.656;2022-07-21T13:16:32;16.30;;;6.25;;
26269;SDS011;15937;50.612;6.656;2022-07-21T13:20:34;10.40;;;6.55;;
26269;SDS011;15937;50.612;6.656;2022-07-21T13:24:36;13.15;;;5.80;;
26269;SDS011;15937;50.612;6.656;2022-07-21T13:28:40;20.55;;;6.95;;
26269;SDS011;15937;50.612;6.656;2022-07-21T13:32:42;13.73;;;7.60;;
26269;SDS011;15937;50.612;6.656;2022-07-21T13:36:46;17.85;;;7.10;;
26269;SDS011;15937;50.612;6.656;2022-07-21T13:40:49;20.15;;;7.00;;
26269;SDS011;15937;50.612;6.656;2022-07-21T13:45:11;18.70;;;6.90;;
26269;SDS011;15937;50.612;6.656;2022-07-21T13:49:15;11.27;;;6.80;;
26269;SDS011;15937;50.612;6.656;2022-07-21T13:53:17;18.85;;;7.03;;
26269;SDS011;15937;50.612;6.656;2022-07-21T13:57:19;11.55;;;5.72;;
26269;SDS011;15937;50.612;6.656;2022-07-21T14:01:21;14.57;;;6.38;;
26269;SDS011;15937;50.612;6.656;2022-07-21T14:05:23;12.68;;;6.55;;
26269;SDS011;15937;50.612;6.656;2022-07-21T14:09:25;7.97;;;6.00;;
26269;SDS011;15937;50.612;6.656;2022-07-21T14:13:27;8.37;;;5.43;;
26269;SDS011;15937;50.612;6.656;2022-07-21T14:17:29;7.10;;;5.22;;
26269;SDS011;15937;50.612;6.656;2022-07-21T14:21:31;7.27;;;5.17;;
26269;SDS011;15937;50.612;6.656;2022-07-21T14:25:34;9.07;;;4.45;;
26269;SDS011;15937;50.612;6.656;2022-07-21T14:29:39;7.35;;;4.63;;
26269;SDS011;15937;50.612;6.656;2022-07-21T14:33:41;8.03;;;5.50;;
26269;SDS011;15937;50.612;6.656;2022-07-21T14:37:43;7.50;;;5.03;;
26269;SDS011;15937;50.612;6.656;2022-07-21T14:41:45;9.15;;;5.07;;
26269;SDS011;15937;50.612;6.656;2022-07-21T14:45:46;7.00;;;4.47;;
26269;SDS011;15937;50.612;6.656;2022-07-21T14:49:48;9.33;;;5.70;;
26269;SDS011;15937;50.612;6.656;2022-07-21T14:53:50;5.37;;;3.50;;
26269;SDS011;15937;50.612;6.656;2022-07-21T14:57:53;5.45;;;2.75;;
26269;SDS011;15937;50.612;6.656;2022-07-21T15:01:55;4.07;;;3.10;;
26269;SDS011;15937;50.612;6.656;2022-07-21T15:05:57;4.68;;;2.70;;
26269;SDS011;15937;50.612;6.656;2022-07-21T15:10:04;3.10;;;2.25;;
26269;SDS011;15937;50.612;6.656;2022-07-21T15:14:09;3.15;;;1.88;;
26269;SDS011;15937;50.612;6.656;2022-07-21T15:18:14;4.68;;;1.85;;
26269;SDS011;15937;50.612;6.656;2022-07-21T15:22:17;1.83;;;1.63;;
26269;SDS011;15937;50.612;6.656;2022-07-21T15:26:23;1.95;;;1.77;;
26269;SDS011;15937;50.612;6.656;2022-07-21T15:30:25;4.57;;;1.70;;
26269;SDS011;15937;50.612;6.656;2022-07-21T15:34:27;2.08;;;1.80;;
26269;SDS011;15937;50.612;6.656;2022-07-21T15:38:32;4.17;;;2.23;;
26269;SDS011;15937;50.612;6.656;2022-07-21T15:42:34;4.53;;;2.15;;
26269;SDS011;15937;50.612;6.656;2022-07-21T15:46:38;6.38;;;2.47;;
26269;SDS011;15937;50.612;6.656;2022-07-21T15:50:43;4.63;;;2.92;;
26269;SDS011;15937;50.612;6.656;2022-07-21T15:54:45;4.23;;;2.77;;
26269;SDS011;15937;50.612;6.656;2022-07-21T15:59:03;4.10;;;2.53;;
26269;SDS011;15937;50.612;6.656;2022-07-21T16:03:24;3.60;;;2.45;;
26269;SDS011;15937;50.612;6.656;2022-07-21T16:07:26;5.33;;;2.73;;
26269;SDS011;15937;50.612;6.656;2022-07-21T16:11:29;3.80;;;2.83;;
26269;SDS011;15937;50.612;6.656;2022-07-21T16:15:31;10.93;;;5.85;;
26269;SDS011;15937;50.612;6.656;2022-07-21T16:19:33;6.03;;;2.63;;
26269;SDS011;15937;50.612;6.656;2022-07-21T16:23:47;6.90;;;3.97;;
26269;SDS011;15937;50.612;6.656;2022-07-21T16:27:54;12.65;;;5.38;;
26269;SDS011;15937;50.612;6.656;2022-07-21T16:31:56;11.33;;;4.87;;
26269;SDS011;15937;50.612;6.656;2022-07-21T16:36:25;9.73;;;5.03;;
26269;SDS011;15937;50.612;6.656;2022-07-21T16:40:35;10.48;;;5.95;;
26269;SDS011;15937;50.612;6.656;2022-07-21T16:44:38;8.75;;;5.80;;
26269;SDS011;15937;50.612;6.656;2022-07-21T16:48:41;12.13;;;6.60;;
26269;SDS011;15937;50.612;6.656;2022-07-21T16:52:44;13.18;;;6.95;;
26269;SDS011;15937;50.612;6.656;2022-07-21T16:56:46;10.23;;;5.95;;
26269;SDS011;15937;50.612;6.656;2022-07-21T17:00:55;11.88;;;6.30;;
26269;SDS011;15937;50.612;6.656;2022-07-21T17:04:59;13.40;;;7.45;;
26269;SDS011;15937;50.612;6.656;2022-07-21T17:09:05;14.95;;;7.45;;
26269;SDS011;15937;50.612;6.656;2022-07-21T17:13:09;11.60;;;6.45;;
26269;SDS011;15937;50.612;6.656;2022-07-21T17:17:25;12.45;;;7.00;;
26269;SDS011;15937;50.612;6.656;2022-07-21T17:21:29;10.55;;;6.60;;
26269;SDS011;15937;50.612;6.656;2022-07-21T17:25:31;13.67;;;6.63;;
26269;SDS011;15937;50.612;6.656;2022-07-21T17:29:32;16.27;;;6.80;;
26269;SDS011;15937;50.612;6.656;2022-07-21T17:33:41;10.20;;;5.95;;
26269;SDS011;15937;50.612;6.656;2022-07-21T17:37:46;11.37;;;7.10;;
26269;SDS011;15937;50.612;6.656;2022-07-21T17:41:48;13.00;;;7.10;;
26269;SDS011;15937;50.612;6.656;2022-07-21T17:45:50;15.70;;;6.80;;
26269;SDS011;15937;50.612;6.656;2022-07-21T17:49:54;15.57;;;6.95;;
26269;SDS011;15937;50.612;6.656;2022-07-21T17:53:56;14.52;;;7.82;;
26269;SDS011;15937;50.612;6.656;2022-07-21T17:58:02;12.57;;;7.13;;
26269;SDS011;15937;50.612;6.656;2022-07-21T18:02:23;15.57;;;7.38;;
26269;SDS011;15937;50.612;6.656;2022-07-21T18:06:27;12.77;;;7.00;;
26269;SDS011;15937;50.612;6.656;2022-07-21T18:10:30;13.32;;;6.60;;
26269;SDS011;15937;50.612;6.656;2022-07-21T18:14:32;13.75;;;6.78;;
26269;SDS011;15937;50.612;6.656;2022-07-21T18:18:34;11.60;;;7.27;;
26269;SDS011;15937;50.612;6.656;2022-07-21T18:22:38;15.00;;;7.57;;
26269;SDS011;15937;50.612;6.656;2022-07-21T18:26:40;14.32;;;5.80;;
26269;SDS011;15937;50.612;6.656;2022-07-21T18:30:43;17.33;;;6.93;;
26269;SDS011;15937;50.612;6.656;2022-07-21T18:34:47;15.55;;;6.57;;
26269;SDS011;15937;50.612;6.656;2022-07-21T18:38:56;12.07;;;6.95;;
26269;SDS011;15937;50.612;6.656;2022-07-21T18:43:04;16.08;;;6.97;;
26269;SDS011;15937;50.612;6.656;2022-07-21T18:47:10;13.00;;;6.07;;
26269;SDS011;15937;50.612;6.656;2022-07-21T18:51:12;18.77;;;7.03;;
26269;SDS011;15937;50.612;6.656;2022-07-21T18:55:35;13.80;;;7.00;;
26269;SDS011;15937;50.612;6.656;2022-07-21T18:59:44;15.70;;;6.30;;
26269;SDS011;15937;50.612;6.656;2022-07-21T19:03:47;15.48;;;6.97;;
26269;SDS011;15937;50.612;6.656;2022-07-21T19:07:50;13.68;;;6.55;;
26269;SDS011;15937;50.612;6.656;2022-07-21T19:12:05;14.00;;;6.60;;
26269;SDS011;15937;50.612;6.656;2022-07-21T19:16:10;17.98;;;6.93;;
26269;SDS011;15937;50.612;6.656;2022-07-21T19:20:13;12.38;;;6.70;;
26269;SDS011;15937;50.612;6.656;2022-07-21T19:24:17;14.55;;;7.03;;
26269;SDS011;15937;50.612;6.656;2022-07-21T19:28:19;16.77;;;7.13;;
26269;SDS011;15937;50.612;6.656;2022-07-21T19:32:34;16.77;;;7.13;;
26269;SDS011;15937;50.612;6.656;2022-07-21T19:36:39;17.05;;;7.57;;
26269;SDS011;15937;50.612;6.656;2022-07-21T19:40:41;18.03;;;6.97;;
26269;SDS011;15937;50.612;6.656;2022-07-21T19:44:46;15.00;;;7.25;;
26269;SDS011;15937;50.612;6.656;2022-07-21T19:48:51;14.20;;;7.47;;
26269;SDS011;15937;50.612;6.656;2022-07-21T19:52:54;11.90;;;7.90;;
26269;SDS011;15937;50.612;6.656;2022-07-21T19:56:56;16.07;;;7.33;;
26269;SDS011;15937;50.612;6.656;2022-07-21T20:00:58;17.25;;;8.13;;
26269;SDS011;15937;50.612;6.656;2022-07-21T20:05:01;20.80;;;8.25;;
26269;SDS011;15937;50.612;6.656;2022-07-21T20:09:05;20.92;;;7.88;;
26269;SDS011;15937;50.612;6.656;2022-07-21T20:13:10;17.90;;;8.48;;
26269;SDS011;15937;50.612;6.656;2022-07-21T20:17:12;19.13;;;7.38;;
26269;SDS011;15937;50.612;6.656;2022-07-21T20:21:30;22.08;;;7.55;;
26269;SDS011;15937;50.612;6.656;2022-07-21T20:25:33;21.00;;;8.27;;
26269;SDS011;15937;50.612;6.656;2022-07-21T20:29:35;21.25;;;7.50;;
26269;SDS011;15937;50.612;6.656;2022-07-21T20:33:37;19.27;;;7.10;;
26269;SDS011;15937;50.612;6.656;2022-07-21T20:37:43;27.85;;;7.38;;
26269;SDS011;15937;50.612;6.656;2022-07-21T20:41:54;15.40;;;7.00;;
26269;SDS011;15937;50.612;6.656;2022-07-21T20:45:58;19.42;;;7.25;;
26269;SDS011;15937;50.612;6.656;2022-07-21T20:50:20;20.30;;;7.63;;
26269;SDS011;15937;50.612;6.656;2022-07-21T20:54:22;24.35;;;8.25;;
26269;SDS011;15937;50.612;6.656;2022-07-21T20:58:24;20.15;;;7.85;;
26269;SDS011;15937;50.612;6.656;2022-07-21T21:02:26;26.63;;;9.27;;
26269;SDS011;15937;50.612;6.656;2022-07-21T21:06:33;18.35;;;8.18;;
26269;SDS011;15937;50.612;6.656;2022-07-21T21:10:36;18.63;;;8.20;;
26269;SDS011;15937;50.612;6.656;2022-07-21T21:14:38;25.83;;;8.67;;
26269;SDS011;15937;50.612;6.656;2022-07-21T21:18:40;21.83;;;10.00;;
26269;SDS011;15937;50.612;6.656;2022-07-21T21:22:41;29.17;;;8.60;;
26269;SDS011;15937;50.612;6.656;2022-07-21T21:26:43;20.50;;;9.33;;
26269;SDS011;15937;50.612;6.656;2022-07-21T21:30:47;16.25;;;9.63;;
26269;SDS011;15937;50.612;6.656;2022-07-21T21:34:51;20.63;;;8.63;;
26269;SDS011;15937;50.612;6.656;2022-07-21T21:38:53;22.80;;;9.27;;
26269;SDS011;15937;50.612;6.656;2022-07-21T21:42:55;19.52;;;8.38;;
26269;SDS011;15937;50.612;6.656;2022-07-21T21:46:57;20.33;;;10.27;;
26269;SDS011;15937;50.612;6.656;2022-07-21T21:50:58;16.70;;;10.05;;
26269;SDS011;15937;50.612;6.656;2022-07-21T21:55:02;25.98;;;10.60;;
26269;SDS011;15937;50.612;6.656;2022-07-21T22:03:07;25.23;;;9.02;;
26269;SDS011;15937;50.612;6.656;2022-07-21T22:07:09;21.90;;;8.67;;
26269;SDS011;15937;50.612;6.656;2022-07-21T22:11:11;22.83;;;9.23;;
26269;SDS011;15937;50.612;6.656;2022-07-21T22:15:12;21.85;;;8.65;;
26269;SDS011;15937;50.612;6.656;2022-07-21T22:19:15;17.70;;;8.85;;
26269;SDS011;15937;50.612;6.656;2022-07-21T22:23:17;21.08;;;9.15;;
26269;SDS011;15937;50.612;6.656;2022-07-21T22:27:19;20.92;;;8.13;;
26269;SDS011;15937;50.612;6.656;2022-07-21T22:31:21;13.45;;;7.07;;
26269;SDS011;15937;50.612;6.656;2022-07-21T22:35:26;19.50;;;8.75;;
26269;SDS011;15937;50.612;6.656;2022-07-21T22:39:27;12.90;;;6.90;;
26269;SDS011;15937;50.612;6.656;2022-07-21T22:43:29;14.32;;;6.47;;
26269;SDS011;15937;50.612;6.656;2022-07-21T22:47:31;17.00;;;7.30;;
26269;SDS011;15937;50.612;6.656;2022-07-21T22:51:33;16.75;;;7.03;;
26269;SDS011;15937;50.612;6.656;2022-07-21T22:55:35;16.38;;;7.00;;
26269;SDS011;15937;50.612;6.656;2022-07-21T22:59:37;15.87;;;7.47;;
26269;SDS011;15937;50.612;6.656;2022-07-21T23:03:38;19.42;;;7.50;;
26269;SDS011;15937;50.612;6.656;2022-07-21T23:07:40;15.85;;;6.93;;
26269;SDS011;15937;50.612;6.656;2022-07-21T23:11:42;22.42;;;7.25;;
26269;SDS011;15937;50.612;6.656;2022-07-21T23:15:44;12.23;;;6.57;;
26269;SDS011;15937;50.612;6.656;2022-07-21T23:19:46;10.30;;;6.60;;
26269;SDS011;15937;50.612;6.656;2022-07-21T23:23:47;10.45;;;6.45;;
26269;SDS011;15937;50.612;6.656;2022-07-21T23:27:49;16.98;;;6.95;;
26269;SDS011;15937;50.612;6.656;2022-07-21T23:31:51;14.35;;;6.30;;
26269;SDS011;15937;50.612;6.656;2022-07-21T23:35:53;15.13;;;6.82;;
26269;SDS011;15937;50.612;6.656;2022-07-21T23:39:55;12.00;;;6.15;;
26269;SDS011;15937;50.612;6.656;2022-07-21T23:43:57;9.85;;;5.30;;
26269;SDS011;15937;50.612;6.656;2022-07-21T23:47:59;15.10;;;5.47;;
26269;SDS011;15937;50.612;6.656;2022-07-21T23:52:01;12.57;;;5.18;;
26269;SDS011;15937;50.612;6.656;2022-07-21T23:56:03;11.82;;;5.53;;
